| time (UTC) | temp C | wind direction | speed KPH | gust KPH | rain 1hr cm | rain 24hr cm | rain mn cm | humidity % | barometer mb |
| 20260506051336 | 20 | 260 | 0.0 | 6.4 | 0.00 | 0.00 | 0.00 | 66 | 1011.8 |
| 20260506050834 | 20 | 260 | 0.0 | 9.7 | 0.00 | 0.00 | 0.00 | 66 | 1011.8 |
| 20260506050331 | 20 | 317 | 3.2 | 6.4 | 0.00 | 0.00 | 0.00 | 66 | 1012.0 |
| 20260506044821 | 20 | 198 | 0.0 | 3.2 | 0.00 | 0.00 | 0.00 | 66 | 1011.8 |
| 20260506044320 | 19 | 203 | 0.0 | 3.2 | 0.00 | 0.00 | 0.00 | 66 | 1011.9 |
| 20260506043816 | 19 | 235 | 0.0 | 3.2 | 0.00 | 0.00 | 0.00 | 67 | 1011.8 |
| 20260506043314 | 20 | 9 | 0.0 | 1.6 | 0.00 | 0.00 | 0.00 | 66 | 1011.8 |
| 20260506042812 | 20 | 230 | 0.0 | 3.2 | 0.00 | 0.00 | 0.00 | 67 | 1011.9 |
| 20260506042311 | 20 | 216 | 1.6 | 3.2 | 0.00 | 0.00 | 0.00 | 66 | 1011.8 |
| 20260506041809 | 20 | 331 | 1.6 | 1.6 | 0.00 | 0.00 | 0.00 | 65 | 1011.8 |
| 20260506041305 | 20 | 171 | 0.0 | 4.8 | 0.00 | 0.00 | 0.00 | 64 | 1012.0 |
| 20260506040803 | 20 | 242 | 0.0 | 6.4 | 0.00 | 0.00 | 0.00 | 63 | 1011.8 |
| 20260506040300 | 20 | 150 | 3.2 | 8.0 | 0.00 | 0.00 | 0.00 | 66 | 1011.6 |
| 20260506035756 | 20 | 326 | 0.0 | 3.2 | 0.00 | 0.00 | 0.00 | 67 | 1011.8 |
| 20260506035253 | 20 | 235 | 0.0 | 3.2 | 0.00 | 0.00 | 0.00 | 67 | 1012.0 |
| 20260506034750 | 20 | 229 | 0.0 | 1.6 | 0.00 | 0.00 | 0.00 | 66 | 1012.0 |
| 20260506034248 | 20 | 254 | 0.0 | 3.2 | 0.00 | 0.00 | 0.00 | 64 | 1011.9 |
| 20260506033744 | 20 | 212 | 4.8 | 4.8 | 0.00 | 0.00 | 0.00 | 63 | 1012.1 |
| 20260506033242 | 20 | 122 | 0.0 | 3.2 | 0.00 | 0.00 | 0.00 | 62 | 1012.1 |
| 20260506032738 | 20 | 87 | 0.0 | 3.2 | 0.00 | 0.00 | 0.00 | 63 | 1011.9 |
| 20260506032235 | 20 | 155 | 0.0 | 4.8 | 0.00 | 0.00 | 0.00 | 62 | 1011.9 |
| 20260506031726 | 20 | 245 | 3.2 | 6.4 | 0.00 | 0.00 | 0.00 | 60 | 1011.8 |
| 20260506031224 | 20 | 258 | 0.0 | 8.0 | 0.00 | 0.00 | 0.00 | 61 | 1011.8 |
| 20260506030722 | 20 | 227 | 0.0 | 6.4 | 0.00 | 0.00 | 0.00 | 59 | 1012.0 |
| 20260506030219 | 21 | 2 | 3.2 | 6.4 | 0.00 | 0.00 | 0.00 | 60 | 1012.0 |
| 20260506025716 | 21 | 334 | 3.2 | 4.8 | 0.00 | 0.00 | 0.00 | 58 | 1011.9 |
| 20260506025212 | 21 | 301 | 1.6 | 9.7 | 0.00 | 0.00 | 0.00 | 59 | 1012.2 |
| 20260506024709 | 21 | 9 | 0.0 | 4.8 | 0.00 | 0.00 | 0.00 | 59 | 1012.3 |
| 20260506024205 | 21 | 51 | 3.2 | 6.4 | 0.00 | 0.00 | 0.00 | 58 | 1012.4 |
| 20260506023702 | 21 | 284 | 0.0 | 8.0 | 0.00 | 0.00 | 0.00 | 58 | 1012.0 |
| 20260506023200 | 21 | 197 | 0.0 | 6.4 | 0.00 | 0.00 | 0.00 | 58 | 1012.0 |
| 20260506022656 | 21 | 312 | 4.8 | 12.9 | 0.00 | 0.00 | 0.00 | 57 | 1011.6 |
| 20260506022153 | 21 | 284 | 1.6 | 8.0 | 0.00 | 0.00 | 0.00 | 57 | 1011.9 |
| 20260506021646 | 21 | 236 | 1.6 | 6.4 | 0.00 | 0.00 | 0.00 | 58 | 1011.8 |
| 20260506021143 | 21 | 284 | 0.0 | 8.0 | 0.00 | 0.00 | 0.00 | 58 | 1011.9 |
| 20260506020640 | 21 | 242 | 0.0 | 6.4 | 0.00 | 0.00 | 0.00 | 57 | 1011.6 |
| 20260506020137 | 21 | 136 | 0.0 | 6.4 | 0.00 | 0.00 | 0.00 | 57 | 1011.8 |
| 20260506015635 | 21 | 237 | 3.2 | 6.4 | 0.00 | 0.00 | 0.00 | 58 | 1011.7 |
| 20260506015131 | 21 | 240 | 1.6 | 4.8 | 0.00 | 0.00 | 0.00 | 56 | 1011.5 |
| 20260506014629 | 21 | 268 | 1.6 | 8.0 | 0.00 | 0.00 | 0.00 | 56 | 1011.5 |
| 20260506014124 | 21 | 256 | 4.8 | 11.3 | 0.00 | 0.00 | 0.00 | 55 | 1011.4 |
| 20260506013623 | 21 | 329 | 0.0 | 4.8 | 0.00 | 0.00 | 0.00 | 56 | 1011.5 |
| 20260506013119 | 21 | 245 | 3.2 | 6.4 | 0.00 | 0.00 | 0.00 | 56 | 1011.6 |
| 20260506012615 | 21 | 254 | 1.6 | 11.3 | 0.00 | 0.00 | 0.00 | 56 | 1011.3 |
| 20260506012111 | 21 | 336 | 1.6 | 14.5 | 0.00 | 0.00 | 0.00 | 55 | 1011.4 |
| 20260506011610 | 21 | 216 | 1.6 | 6.4 | 0.00 | 0.00 | 0.00 | 54 | 1011.4 |
| 20260506011106 | 21 | 270 | 6.4 | 12.9 | 0.00 | 0.00 | 0.00 | 55 | 1011.5 |
| 20260506010600 | 21 | 262 | 3.2 | 6.4 | 0.00 | 0.00 | 0.00 | 55 | 1010.9 |
| 20260506010056 | 21 | 239 | 4.8 | 14.5 | 0.00 | 0.00 | 0.00 | 53 | 1011.3 |
| 20260506005553 | 21 | 203 | 0.0 | 11.3 | 0.00 | 0.00 | 0.00 | 54 | 1011.1 |
| 20260506005049 | 21 | 245 | 0.0 | 6.4 | 0.00 | 0.00 | 0.00 | 57 | 1011.0 |
| 20260506004547 | 20 | 225 | 1.6 | 8.0 | 0.00 | 0.00 | 0.00 | 56 | 1011.0 |
| 20260506004043 | 21 | 355 | 0.0 | 4.8 | 0.00 | 0.00 | 0.00 | 55 | 1011.0 |
| 20260506003539 | 21 | 255 | 1.6 | 4.8 | 0.00 | 0.00 | 0.00 | 56 | 1011.4 |
| 20260506003035 | 21 | 274 | 3.2 | 11.3 | 0.00 | 0.00 | 0.00 | 55 | 1011.5 |
| 20260506002526 | 21 | 285 | 4.8 | 8.0 | 0.00 | 0.00 | 0.00 | 55 | 1011.5 |
| 20260506002022 | 20 | 359 | 0.0 | 4.8 | 0.00 | 0.00 | 0.00 | 58 | 1011.4 |
| 20260506001519 | 21 | 222 | 3.2 | 4.8 | 0.00 | 0.00 | 0.00 | 56 | 1011.3 |
| 20260506001016 | 20 | 297 | 3.2 | 4.8 | 0.00 | 0.00 | 0.00 | 57 | 1011.5 |
| 20260506000514 | 21 | 235 | 0.0 | 8.0 | 0.00 | 0.00 | 0.00 | 57 | 1011.4 |
| 20260506000011 | 20 | 328 | 0.0 | 6.4 | 0.00 | 0.00 | 0.00 | 58 | 1011.5 |
| 20260505235509 | 21 | 18 | 1.6 | 8.0 | 0.00 | 0.00 | 0.00 | 55 | 1011.3 |
| 20260505235005 | 20 | 209 | 1.6 | 6.4 | 0.00 | 0.00 | 0.00 | 57 | 1011.3 |
| 20260505234502 | 21 | 268 | 3.2 | 8.0 | 0.00 | 0.00 | 0.00 | 55 | 1011.7 |
| 20260505233959 | 21 | 271 | 0.0 | 8.0 | 0.00 | 0.00 | 0.00 | 55 | 1011.5 |
| 20260505233456 | 21 | 240 | 0.0 | 4.8 | 0.00 | 0.00 | 0.00 | 56 | 1011.5 |
| 20260505232954 | 21 | 228 | 0.0 | 6.4 | 0.00 | 0.00 | 0.00 | 58 | 1011.4 |
| 20260505232451 | 21 | 195 | 0.0 | 6.4 | 0.00 | 0.00 | 0.00 | 59 | 1011.6 |
| 20260505231948 | 20 | 254 | 0.0 | 9.7 | 0.00 | 0.00 | 0.00 | 59 | 1011.6 |
| 20260505231446 | 20 | 327 | 4.8 | 8.0 | 0.00 | 0.00 | 0.00 | 61 | 1011.0 |
| 20260505230944 | 20 | 254 | 0.0 | 4.8 | 0.00 | 0.00 | 0.00 | 62 | 1011.1 |
| 20260505230441 | 20 | 342 | 8.0 | 11.3 | 0.00 | 0.00 | 0.00 | 62 | 1011.1 |
| 20260505225937 | 20 | 268 | 0.0 | 4.8 | 0.00 | 0.00 | 0.00 | 69 | 1011.1 |
| 20260505225435 | 20 | 241 | 0.0 | 3.2 | 0.00 | 0.00 | 0.00 | 68 | 1011.6 |
| 20260505224930 | 19 | 189 | 0.0 | 4.8 | 0.00 | 0.00 | 0.00 | 72 | 1011.7 |
| 20260505224428 | 20 | 242 | 0.0 | 1.6 | 0.00 | 0.00 | 0.00 | 68 | 1011.6 |
| 20260505223925 | 20 | 15 | 4.8 | 6.4 | 0.00 | 0.00 | 0.00 | 62 | 1011.4 |
| 20260505223422 | 19 | 246 | 0.0 | 3.2 | 0.00 | 0.00 | 0.00 | 73 | 1011.3 |
| 20260505222918 | 18 | 210 | 0.0 | 3.2 | 0.00 | 0.00 | 0.00 | 75 | 1011.4 |
| 20260505222414 | 18 | 213 | 3.2 | 4.8 | 0.00 | 0.00 | 0.00 | 74 | 1011.5 |
| 20260505221910 | 18 | 187 | 0.0 | 4.8 | 0.00 | 0.00 | 0.00 | 75 | 1011.6 |
| 20260505221408 | 19 | 324 | 0.0 | 1.6 | 0.00 | 0.00 | 0.00 | 76 | 1011.7 |
| 20260505220905 | 18 | 213 | 0.0 | 3.2 | 0.00 | 0.00 | 0.00 | 71 | 1011.6 |
| 20260505220402 | 18 | 116 | 3.2 | 3.2 | 0.00 | 0.00 | 0.00 | 68 | 1011.4 |
| 20260505215859 | 19 | 250 | 1.6 | 4.8 | 0.05 | 0.00 | 0.00 | 72 | 1011.3 |
| 20260505215357 | 20 | 144 | 4.8 | 6.4 | 0.00 | 0.00 | 0.00 | 64 | 1011.3 |
| 20260505214855 | 20 | 264 | 3.2 | 16.1 | 0.00 | 0.00 | 0.00 | 55 | 1011.3 |
| 20260505214352 | 21 | 254 | 3.2 | 12.9 | 0.00 | 0.00 | 0.00 | 56 | 1011.7 |
| 20260505213849 | 21 | 330 | 6.4 | 9.7 | 0.00 | 0.00 | 0.00 | 50 | 1011.9 |
| 20260505213347 | 21 | 330 | 8.0 | 9.7 | 0.00 | 0.00 | 0.00 | 48 | 1011.9 |
| 20260505212843 | 22 | 260 | 0.0 | 6.4 | 0.00 | 0.00 | 0.00 | 49 | 1012.2 |
| 20260505212340 | 22 | 250 | 0.0 | 8.0 | 0.00 | 0.00 | 0.00 | 45 | 1012.4 |
| 20260505211836 | 23 | 277 | 1.6 | 9.7 | 0.00 | 0.00 | 0.00 | 44 | 1012.2 |
| 20260505211334 | 23 | 271 | 0.0 | 6.4 | 0.00 | 0.00 | 0.00 | 43 | 1012.5 |
| 20260505210830 | 23 | 291 | 1.6 | 12.9 | 0.00 | 0.00 | 0.00 | 43 | 1012.1 |
| 20260505210327 | 23 | 244 | 3.2 | 6.4 | 0.00 | 0.00 | 0.00 | 43 | 1012.2 |
| 20260505205824 | 23 | 242 | 4.8 | 12.9 | 0.00 | 0.00 | 0.00 | 41 | 1012.0 |
| 20260505205322 | 23 | 14 | 6.4 | 17.7 | 0.00 | 0.00 | 0.00 | 42 | 1012.2 |
| 20260505204819 | 23 | 356 | 3.2 | 9.7 | 0.00 | 0.00 | 0.00 | 43 | 1012.2 |
| 20260505204317 | 23 | 264 | 4.8 | 14.5 | 0.00 | 0.00 | 0.00 | 42 | 1012.4 |
| 20260505203814 | 23 | 265 | 0.0 | 17.7 | 0.00 | 0.00 | 0.00 | 45 | 1012.1 |
| 20260505203310 | 24 | 50 | 3.2 | 8.0 | 0.00 | 0.00 | 0.00 | 44 | 1012.3 |
| 20260505202807 | 24 | 262 | 3.2 | 8.0 | 0.00 | 0.00 | 0.00 | 44 | 1012.2 |
| 20260505202306 | 24 | 258 | 4.8 | 14.5 | 0.00 | 0.00 | 0.00 | 42 | 1012.4 |
| 20260505201800 | 24 | 281 | 3.2 | 16.1 | 0.00 | 0.00 | 0.00 | 42 | 1012.5 |
| 20260505201257 | 25 | 275 | 0.0 | 12.9 | 0.00 | 0.00 | 0.00 | 41 | 1012.6 |
| 20260505200755 | 25 | 20 | 8.0 | 9.7 | 0.00 | 0.00 | 0.00 | 40 | 1012.6 |
| 20260505200252 | 25 | 265 | 6.4 | 9.7 | 0.00 | 0.00 | 0.00 | 38 | 1012.5 |
| 20260505195747 | 25 | 243 | 4.8 | 17.7 | 0.00 | 0.00 | 0.00 | 38 | 1012.6 |
| 20260505195245 | 25 | 346 | 6.4 | 22.5 | 0.00 | 0.00 | 0.00 | 39 | 1012.5 |
| 20260505194742 | 25 | 231 | 6.4 | 14.5 | 0.00 | 0.00 | 0.00 | 40 | 1012.4 |
| 20260505194238 | 25 | 36 | 6.4 | 8.0 | 0.00 | 0.00 | 0.00 | 42 | 1012.6 |
| 20260505193734 | 26 | 355 | 12.9 | 12.9 | 0.00 | 0.00 | 0.00 | 42 | 1012.9 |
| 20260505193232 | 25 | 1 | 9.7 | 19.3 | 0.00 | 0.00 | 0.00 | 42 | 1012.8 |
| 20260505192730 | 25 | 19 | 1.6 | 19.3 | 0.00 | 0.00 | 0.00 | 44 | 1012.8 |
| 20260505192228 | 25 | 350 | 11.3 | 14.5 | 0.00 | 0.00 | 0.00 | 48 | 1012.7 |
| 20260505191726 | 25 | 267 | 4.8 | 19.3 | 0.00 | 0.00 | 0.00 | 45 | 1012.8 |
| 20260505191224 | 26 | 1 | 11.3 | 17.7 | 0.00 | 0.00 | 0.00 | 42 | 1012.9 |
| 20260505190720 | 25 | 328 | 4.8 | 16.1 | 0.00 | 0.00 | 0.00 | 44 | 1012.8 |
| 20260505190219 | 25 | 240 | 4.8 | 14.5 | 0.00 | 0.00 | 0.00 | 43 | 1013.2 |
| 20260505185716 | 24 | 236 | 4.8 | 12.9 | 0.00 | 0.00 | 0.00 | 45 | 1012.9 |
| 20260505185213 | 24 | 9 | 4.8 | 9.7 | 0.00 | 0.00 | 0.00 | 45 | 1013.0 |
| 20260505184709 | 25 | 248 | 19.3 | 19.3 | 0.00 | 0.00 | 0.00 | 45 | 1013.3 |
| 20260505184207 | 24 | 245 | 3.2 | 12.9 | 0.00 | 0.00 | 0.00 | 44 | 1013.4 |
| 20260505183703 | 23 | 248 | 8.0 | 19.3 | 0.00 | 0.00 | 0.00 | 48 | 1013.4 |
| 20260505183201 | 23 | 279 | 4.8 | 14.5 | 0.00 | 0.00 | 0.00 | 47 | 1013.6 |
| 20260505182656 | 24 | 258 | 4.8 | 16.1 | 0.00 | 0.00 | 0.00 | 46 | 1013.7 |
| 20260505182154 | 23 | 320 | 9.7 | 14.5 | 0.00 | 0.00 | 0.00 | 44 | 1013.9 |
| 20260505181650 | 24 | 269 | 1.6 | 12.9 | 0.00 | 0.00 | 0.00 | 46 | 1013.8 |
| 20260505181148 | 24 | 355 | 9.7 | 19.3 | 0.00 | 0.00 | 0.00 | 47 | 1013.7 |
| 20260505180644 | 23 | 208 | 9.7 | 14.5 | 0.00 | 0.00 | 0.00 | 46 | 1013.7 |
| 20260505180142 | 24 | 205 | 3.2 | 12.9 | 0.00 | 0.00 | 0.00 | 43 | 1013.7 |
| 20260505175637 | 23 | 201 | 4.8 | 17.7 | 0.00 | 0.00 | 0.00 | 44 | 1013.8 |
| 20260505175134 | 24 | 317 | 0.0 | 16.1 | 0.00 | 0.00 | 0.00 | 46 | 1013.7 |
| 20260505174630 | 23 | 335 | 1.6 | 17.7 | 0.00 | 0.00 | 0.00 | 45 | 1013.9 |
| 20260505174126 | 23 | 4 | 0.0 | 20.9 | 0.00 | 0.00 | 0.00 | 44 | 1014.0 |
| 20260505173618 | 23 | 16 | 1.6 | 14.5 | 0.00 | 0.00 | 0.00 | 47 | 1014.0 |
| 20260505173114 | 23 | 310 | 3.2 | 24.1 | 0.00 | 0.00 | 0.00 | 41 | 1013.9 |
| 20260505172612 | 23 | 352 | 3.2 | 12.9 | 0.00 | 0.00 | 0.00 | 46 | 1014.2 |
| 20260505172108 | 23 | 329 | 4.8 | 29.0 | 0.00 | 0.00 | 0.00 | 46 | 1014.3 |
| 20260505171603 | 23 | 265 | 6.4 | 9.7 | 0.00 | 0.00 | 0.00 | 42 | 1014.4 |
| 20260505171101 | 23 | 307 | 0.0 | 17.7 | 0.00 | 0.00 | 0.00 | 42 | 1014.5 |
| 20260505170557 | 23 | 334 | 4.8 | 17.7 | 0.00 | 0.00 | 0.00 | 43 | 1014.9 |
| 20260505170054 | 23 | 282 | 3.2 | 22.5 | 0.00 | 0.00 | 0.00 | 43 | 1015.1 |
| 20260505165549 | 23 | 344 | 4.8 | 16.1 | 0.00 | 0.00 | 0.00 | 48 | 1014.9 |
| 20260505165045 | 23 | 6 | 6.4 | 19.3 | 0.00 | 0.00 | 0.00 | 43 | 1015.0 |
| 20260505164541 | 22 | 266 | 8.0 | 17.7 | 0.00 | 0.00 | 0.00 | 46 | 1014.9 |
| 20260505164038 | 23 | 269 | 6.4 | 19.3 | 0.00 | 0.00 | 0.00 | 46 | 1015.1 |
| 20260505163537 | 23 | 247 | 4.8 | 8.0 | 0.00 | 0.00 | 0.00 | 48 | 1015.2 |
| 20260505163033 | 22 | 5 | 3.2 | 11.3 | 0.00 | 0.00 | 0.00 | 53 | 1015.1 |
| 20260505162526 | 22 | 239 | 6.4 | 12.9 | 0.00 | 0.00 | 0.00 | 50 | 1015.0 |
| 20260505162024 | 22 | 234 | 3.2 | 11.3 | 0.00 | 0.00 | 0.00 | 51 | 1014.8 |
| 20260505161520 | 22 | 289 | 0.0 | 8.0 | 0.00 | 0.00 | 0.00 | 51 | 1014.8 |
| 20260505161017 | 22 | 230 | 8.0 | 11.3 | 0.00 | 0.00 | 0.00 | 50 | 1014.6 |
| 20260505160515 | 22 | 347 | 1.6 | 8.0 | 0.00 | 0.00 | 0.00 | 52 | 1014.8 |
| 20260505152951 | 21 | 347 | 6.4 | 11.3 | 0.00 | 0.00 | 0.00 | 62 | 1015.1 |
| 20260505152449 | 21 | 348 | 6.4 | 11.3 | 0.00 | 0.00 | 0.00 | 62 | 1015.2 |
| 20260505151944 | 21 | 185 | 4.8 | 9.7 | 0.00 | 0.00 | 0.00 | 61 | 1015.3 |
| 20260505151439 | 20 | 249 | 3.2 | 11.3 | 0.00 | 0.00 | 0.00 | 60 | 1015.3 |
| 20260505150937 | 20 | 298 | 1.6 | 8.0 | 0.00 | 0.00 | 0.00 | 63 | 1015.0 |
| 20260505150434 | 20 | 17 | 6.4 | 12.9 | 0.00 | 0.00 | 0.00 | 63 | 1014.9 |
| 20260505140404 | 17 | 212 | 4.8 | 12.9 | 0.00 | 0.00 | 0.00 | 71 | 1015.2 |
| 20260505124817 | 12 | 221 | 3.2 | 4.8 | 0.00 | 0.00 | 0.00 | 81 | 1014.9 |
| 20260505124314 | 12 | 214 | 1.6 | 4.8 | 0.00 | 0.00 | 0.00 | 82 | 1015.0 |
| 20260505123810 | 12 | 208 | 4.8 | 8.0 | 0.00 | 0.00 | 0.00 | 81 | 1014.8 |
| 20260505123307 | 12 | 222 | 4.8 | 4.8 | 0.00 | 0.00 | 0.00 | 82 | 1014.9 |
| 20260505122803 | 12 | 227 | 4.8 | 6.4 | 0.00 | 0.00 | 0.00 | 81 | 1014.5 |
| 20260505122301 | 12 | 83 | 1.6 | 3.2 | 0.00 | 0.00 | 0.00 | 84 | 1014.4 |
| 20260505121757 | 12 | 226 | 0.0 | 4.8 | 0.00 | 0.00 | 0.00 | 84 | 1014.4 |
| 20260505121254 | 12 | 226 | 0.0 | 3.2 | 0.00 | 0.00 | 0.00 | 86 | 1014.4 |
| 20260505120750 | 11 | 233 | 4.8 | 4.8 | 0.00 | 0.00 | 0.00 | 88 | 1014.4 |
| 20260505120246 | 11 | 176 | 0.0 | 3.2 | 0.00 | 0.00 | 0.00 | 89 | 1014.4 |
| 20260505115745 | 11 | 219 | 1.6 | 4.8 | 0.00 | 0.00 | 0.00 | 89 | 1014.1 |
| 20260505115243 | 11 | 235 | 0.0 | 6.4 | 0.00 | 0.00 | 0.00 | 90 | 1014.2 |
| 20260505114740 | 10 | 216 | 1.6 | 4.8 | 0.00 | 0.00 | 0.00 | 91 | 1014.1 |
| 20260505114236 | 10 | 215 | 4.8 | 4.8 | 0.00 | 0.00 | 0.00 | 92 | 1014.0 |
| 20260505113733 | 10 | 227 | 3.2 | 4.8 | 0.00 | 0.00 | 0.00 | 92 | 1014.1 |
| 20260505113229 | 10 | 212 | 1.6 | 3.2 | 0.00 | 0.00 | 0.00 | 92 | 1014.1 |
| 20260505112720 | 10 | 214 | 3.2 | 4.8 | 0.00 | 0.00 | 0.00 | 92 | 1013.9 |
| 20260505112218 | 9 | 229 | 3.2 | 4.8 | 0.00 | 0.00 | 0.00 | 93 | 1013.8 |
| 20260505111717 | 9 | 224 | 1.6 | 3.2 | 0.00 | 0.00 | 0.00 | 92 | 1013.9 |
| 20260505111214 | 10 | 153 | 0.0 | 4.8 | 0.00 | 0.00 | 0.00 | 92 | 1013.7 |
| 20260505110709 | 10 | 208 | 1.6 | 4.8 | 0.00 | 0.00 | 0.00 | 91 | 1013.5 |
| 20260505110207 | 10 | 229 | 4.8 | 4.8 | 0.00 | 0.00 | 0.00 | 90 | 1013.7 |
| 20260505102143 | 10 | 260 | 0.0 | 3.2 | 0.00 | 0.00 | 0.00 | 88 | 1013.5 |
| 20260505101641 | 10 | 222 | 3.2 | 6.4 | 0.00 | 0.00 | 0.00 | 88 | 1013.3 |
| 20260505101137 | 10 | 214 | 0.0 | 6.4 | 0.00 | 0.00 | 0.00 | 88 | 1013.1 |
| 20260505100633 | 10 | 215 | 8.0 | 8.0 | 0.00 | 0.00 | 0.00 | 89 | 1013.2 |
| 20260505100130 | 10 | 224 | 0.0 | 4.8 | 0.00 | 0.00 | 0.00 | 86 | 1013.2 |
| 20260505095626 | 10 | 230 | 4.8 | 6.4 | 0.00 | 0.00 | 0.00 | 86 | 1013.0 |
| 20260505095124 | 10 | 197 | 0.0 | 3.2 | 0.00 | 0.00 | 0.00 | 87 | 1013.2 |
| 20260505094620 | 11 | 200 | 1.6 | 4.8 | 0.00 | 0.00 | 0.00 | 85 | 1013.1 |
| 20260505094116 | 11 | 213 | 0.0 | 4.8 | 0.00 | 0.00 | 0.00 | 84 | 1013.3 |
| 20260505093613 | 11 | 230 | 4.8 | 4.8 | 0.00 | 0.00 | 0.00 | 82 | 1013.3 |
| 20260505093110 | 12 | 225 | 3.2 | 6.4 | 0.00 | 0.00 | 0.00 | 79 | 1013.4 |
| 20260505092607 | 12 | 206 | 3.2 | 4.8 | 0.00 | 0.00 | 0.00 | 81 | 1013.3 |
| 20260505092106 | 12 | 235 | 3.2 | 6.4 | 0.00 | 0.00 | 0.00 | 79 | 1013.2 |
| 20260505091602 | 12 | 231 | 4.8 | 8.0 | 0.00 | 0.00 | 0.00 | 79 | 1013.3 |
| 20260505091101 | 12 | 228 | 3.2 | 4.8 | 0.00 | 0.00 | 0.00 | 79 | 1013.2 |
| 20260505090558 | 12 | 217 | 6.4 | 6.4 | 0.00 | 0.00 | 0.00 | 79 | 1013.4 |
| 20260505090056 | 12 | 242 | 4.8 | 6.4 | 0.00 | 0.00 | 0.00 | 82 | 1013.2 |
| 20260505085553 | 12 | 224 | 3.2 | 6.4 | 0.00 | 0.00 | 0.00 | 82 | 1013.2 |
| 20260505085051 | 11 | 226 | 4.8 | 6.4 | 0.00 | 0.00 | 0.00 | 84 | 1013.1 |
| 20260505084549 | 12 | 241 | 3.2 | 6.4 | 0.00 | 0.00 | 0.00 | 83 | 1013.2 |
| 20260505084047 | 11 | 220 | 4.8 | 4.8 | 0.00 | 0.00 | 0.00 | 84 | 1013.5 |
| 20260505083544 | 12 | 226 | 3.2 | 6.4 | 0.00 | 0.00 | 0.00 | 82 | 1013.4 |
| 20260505083040 | 11 | 235 | 3.2 | 4.8 | 0.00 | 0.00 | 0.00 | 84 | 1013.4 |
| 20260505082536 | 11 | 233 | 3.2 | 4.8 | 0.00 | 0.00 | 0.00 | 84 | 1013.2 |
| 20260505082033 | 12 | 230 | 3.2 | 6.4 | 0.00 | 0.00 | 0.00 | 83 | 1013.5 |
| 20260505081530 | 11 | 216 | 4.8 | 6.4 | 0.00 | 0.00 | 0.00 | 85 | 1013.6 |
| 20260505081027 | 11 | 214 | 1.6 | 4.8 | 0.00 | 0.00 | 0.00 | 87 | 1013.4 |
| 20260505080523 | 11 | 214 | 3.2 | 4.8 | 0.00 | 0.00 | 0.00 | 87 | 1013.5 |
| 20260505080020 | 11 | 235 | 1.6 | 4.8 | 0.00 | 0.00 | 0.00 | 86 | 1013.6 |
| 20260505075516 | 11 | 230 | 0.0 | 3.2 | 0.00 | 0.00 | 0.00 | 87 | 1013.5 |
| 20260505075013 | 11 | 222 | 1.6 | 4.8 | 0.00 | 0.00 | 0.00 | 86 | 1013.2 |
| 20260505074510 | 11 | 237 | 4.8 | 4.8 | 0.00 | 0.00 | 0.00 | 85 | 1013.3 |
| 20260505074007 | 11 | 213 | 3.2 | 4.8 | 0.00 | 0.00 | 0.00 | 85 | 1013.3 |
| 20260505073504 | 11 | 230 | 1.6 | 4.8 | 0.00 | 0.00 | 0.00 | 85 | 1013.5 |
| 20260505073003 | 11 | 226 | 3.2 | 4.8 | 0.00 | 0.00 | 0.00 | 86 | 1013.4 |
| 20260505072458 | 11 | 228 | 3.2 | 4.8 | 0.00 | 0.00 | 0.00 | 87 | 1013.2 |
| 20260505071954 | 11 | 229 | 3.2 | 4.8 | 0.00 | 0.00 | 0.00 | 86 | 1013.5 |
| 20260505071450 | 11 | 218 | 3.2 | 6.4 | 0.00 | 0.00 | 0.00 | 85 | 1013.4 |
| 20260505070948 | 12 | 217 | 3.2 | 3.2 | 0.00 | 0.00 | 0.00 | 84 | 1013.4 |
| 20260505070445 | 12 | 212 | 1.6 | 4.8 | 0.00 | 0.00 | 0.00 | 81 | 1013.3 |
| 20260505065940 | 13 | 233 | 3.2 | 4.8 | 0.00 | 0.00 | 0.00 | 78 | 1013.4 |
| 20260505065437 | 13 | 240 | 4.8 | 6.4 | 0.00 | 0.00 | 0.00 | 76 | 1013.5 |
| 20260505064934 | 14 | 225 | 3.2 | 4.8 | 0.00 | 0.00 | 0.00 | 76 | 1013.5 |
| 20260505064431 | 14 | 239 | 3.2 | 4.8 | 0.00 | 0.00 | 0.00 | 74 | 1013.6 |
| 20260505063929 | 13 | 214 | 3.2 | 4.8 | 0.00 | 0.00 | 0.00 | 75 | 1013.5 |
| 20260505063425 | 14 | 208 | 0.0 | 6.4 | 0.00 | 0.00 | 0.00 | 76 | 1013.6 |
| 20260505062922 | 14 | 236 | 3.2 | 6.4 | 0.00 | 0.00 | 0.00 | 74 | 1013.5 |
| 20260505062419 | 13 | 229 | 1.6 | 4.8 | 0.00 | 0.00 | 0.00 | 77 | 1013.7 |
| 20260505061916 | 13 | 225 | 3.2 | 6.4 | 0.00 | 0.00 | 0.00 | 77 | 1013.8 |
| 20260505061414 | 13 | 222 | 3.2 | 4.8 | 0.00 | 0.00 | 0.00 | 78 | 1013.6 |
| 20260505060911 | 13 | 230 | 0.0 | 4.8 | 0.00 | 0.00 | 0.00 | 77 | 1013.6 |
| 20260505060408 | 14 | 217 | 3.2 | 4.8 | 0.00 | 0.00 | 0.00 | 76 | 1013.7 |
| 20260505055904 | 14 | 218 | 3.2 | 4.8 | 0.00 | 0.00 | 0.00 | 75 | 1013.7 |